createdAt,value
2023-05-16T00:02:29.753Z,26.90
2023-05-16T00:05:39.636Z,27.00
2023-05-16T00:08:51.708Z,26.90
2023-05-16T00:12:03.483Z,26.80
2023-05-16T00:15:17.797Z,26.80
2023-05-16T00:18:30.605Z,26.90
2023-05-16T00:21:41.445Z,26.90
2023-05-16T00:24:51.444Z,26.80
2023-05-16T00:28:03.728Z,26.70
2023-05-16T00:31:15.917Z,26.70
2023-05-16T00:34:27.772Z,26.80
2023-05-16T00:37:37.170Z,26.80
2023-05-16T00:40:46.052Z,26.70
2023-05-16T00:43:58.509Z,26.70
2023-05-16T00:47:10.998Z,26.70
2023-05-16T00:50:24.330Z,26.80
2023-05-16T00:53:37.707Z,26.80
2023-05-16T00:56:49.310Z,26.70
2023-05-16T00:59:57.449Z,26.70
2023-05-16T01:03:07.870Z,26.80
2023-05-16T01:06:19.023Z,26.80
2023-05-16T01:09:30.116Z,26.80
2023-05-16T01:12:42.609Z,26.70
2023-05-16T01:15:55.720Z,26.80
2023-05-16T01:19:08.338Z,26.80
2023-05-16T01:22:25.342Z,26.80
2023-05-16T01:25:47.909Z,26.80
2023-05-16T01:28:58.635Z,26.80
2023-05-16T01:32:10.812Z,26.90
2023-05-16T01:35:22.457Z,26.90
2023-05-16T01:38:35.262Z,26.90
2023-05-16T01:41:53.428Z,26.80
2023-05-16T01:45:06.567Z,26.90
2023-05-16T01:48:17.704Z,26.90
2023-05-16T01:51:31.178Z,26.90
2023-05-16T01:54:48.344Z,26.80
2023-05-16T01:58:00.233Z,26.80
2023-05-16T02:01:12.289Z,26.80
2023-05-16T02:04:26.743Z,26.80
2023-05-16T02:07:36.925Z,26.90
2023-05-16T02:10:50.460Z,26.70
2023-05-16T02:13:59.031Z,26.70
2023-05-16T02:17:12.995Z,26.70
2023-05-16T02:20:23.835Z,26.70
2023-05-16T02:23:33.967Z,26.70
2023-05-16T02:26:48.261Z,26.60
2023-05-16T02:30:01.110Z,26.70
2023-05-16T02:33:12.593Z,26.70
2023-05-16T02:36:24.106Z,26.80
2023-05-16T02:39:34.118Z,26.70
2023-05-16T02:42:44.617Z,26.70
2023-05-16T02:45:56.700Z,26.70
2023-05-16T02:49:06.380Z,26.80
2023-05-16T02:52:17.766Z,26.80
2023-05-16T02:55:26.711Z,26.70
2023-05-16T02:58:35.383Z,26.60
2023-05-16T03:01:46.691Z,26.60
2023-05-16T03:04:57.150Z,26.60
2023-05-16T03:08:10.534Z,26.70
2023-05-16T03:11:24.331Z,26.60
2023-05-16T03:14:34.681Z,26.60
2023-05-16T03:17:45.085Z,26.70
2023-05-16T03:21:02.176Z,26.70
2023-05-16T03:24:15.093Z,26.70
2023-05-16T03:27:26.656Z,26.60
2023-05-16T03:30:38.371Z,26.50
2023-05-16T03:33:48.381Z,26.50
2023-05-16T03:36:58.261Z,26.60
2023-05-16T03:40:07.683Z,26.50
2023-05-16T03:43:15.385Z,26.40
2023-05-16T03:46:25.624Z,26.40
2023-05-16T03:49:36.738Z,26.40
2023-05-16T03:52:49.580Z,26.50
2023-05-16T03:56:00.139Z,26.40
2023-05-16T03:59:13.284Z,26.40
2023-05-16T04:02:24.623Z,26.40
2023-05-16T04:05:35.784Z,26.40
2023-05-16T04:08:48.403Z,26.40
2023-05-16T04:12:02.152Z,26.30
2023-05-16T04:15:16.641Z,26.30
2023-05-16T04:18:26.130Z,26.30
2023-05-16T04:21:37.421Z,26.30
2023-05-16T04:24:53.034Z,26.20
2023-05-16T04:28:05.511Z,26.20
2023-05-16T04:31:17.043Z,26.10
2023-05-16T04:34:30.274Z,26.10
2023-05-16T04:37:43.895Z,26.10
2023-05-16T04:40:58.467Z,26.10
2023-05-16T04:44:07.035Z,26.10
2023-05-16T04:47:20.986Z,26.10
2023-05-16T04:50:30.226Z,26.10
2023-05-16T04:53:44.660Z,26.10
2023-05-16T04:56:55.746Z,26.10
2023-05-16T05:00:10.506Z,26.00
2023-05-16T05:03:21.454Z,26.00
2023-05-16T05:06:33.214Z,26.10
2023-05-16T05:09:46.148Z,26.00
2023-05-16T05:12:56.962Z,25.90
2023-05-16T05:16:05.561Z,25.90
2023-05-16T05:19:17.186Z,25.90
2023-05-16T05:22:27.949Z,25.90
2023-05-16T05:25:40.146Z,25.90
2023-05-16T05:29:01.163Z,25.90
2023-05-16T05:32:03.312Z,25.90
2023-05-16T05:35:17.933Z,25.90
2023-05-16T05:38:25.874Z,25.90
2023-05-16T05:41:38.239Z,25.90
2023-05-16T05:44:51.723Z,25.90
2023-05-16T05:48:02.928Z,25.80
2023-05-16T05:51:14.227Z,25.80
2023-05-16T05:54:23.468Z,25.80
2023-05-16T05:57:33.804Z,25.80
2023-05-16T06:00:47.347Z,25.70
2023-05-16T06:03:56.039Z,25.70
2023-05-16T06:07:04.828Z,25.70
2023-05-16T06:10:15.694Z,25.70
2023-05-16T06:13:26.879Z,25.70
2023-05-16T06:16:39.905Z,25.70
2023-05-16T06:19:50.571Z,25.70
2023-05-16T06:23:02.731Z,25.70
2023-05-16T06:26:12.875Z,25.60
2023-05-16T06:29:25.764Z,25.60
2023-05-16T06:32:35.080Z,25.60
2023-05-16T06:35:46.404Z,25.50
2023-05-16T06:38:57.847Z,25.50
2023-05-16T06:42:10.692Z,25.50
2023-05-16T06:45:20.574Z,25.50
2023-05-16T06:48:32.870Z,25.40
2023-05-16T06:51:43.931Z,25.50
2023-05-16T06:54:54.553Z,25.50
2023-05-16T06:58:04.793Z,25.50
2023-05-16T07:01:17.432Z,25.40
2023-05-16T07:04:29.666Z,25.40
2023-05-16T07:07:43.506Z,25.40
2023-05-16T07:10:55.257Z,25.40
2023-05-16T07:14:05.020Z,25.40
2023-05-16T07:17:15.829Z,25.30
2023-05-16T07:20:28.479Z,25.30
2023-05-16T07:23:40.174Z,25.30
2023-05-16T07:26:51.132Z,25.30
2023-05-16T07:30:01.766Z,25.30
2023-05-16T07:33:15.486Z,25.30
2023-05-16T07:36:26.840Z,25.20
2023-05-16T07:39:34.554Z,25.20
2023-05-16T07:42:46.183Z,25.30
2023-05-16T07:46:01.197Z,25.20
2023-05-16T07:49:10.944Z,25.10
2023-05-16T07:52:23.899Z,25.10
2023-05-16T07:55:34.767Z,25.10
2023-05-16T07:58:45.661Z,25.10
2023-05-16T08:01:58.357Z,25.10
2023-05-16T08:05:09.856Z,25.00
2023-05-16T08:08:21.536Z,25.00
2023-05-16T08:11:30.923Z,25.10
2023-05-16T08:14:41.483Z,25.00
2023-05-16T08:17:53.736Z,25.00
2023-05-16T08:21:04.629Z,25.00
2023-05-16T08:24:18.474Z,24.90
2023-05-16T08:27:29.443Z,25.00
2023-05-16T08:30:37.616Z,24.90
2023-05-16T08:33:50.634Z,24.90
2023-05-16T08:36:59.945Z,24.90
2023-05-16T08:40:12.878Z,24.90
2023-05-16T08:43:24.308Z,25.00
2023-05-16T08:46:36.287Z,24.90
2023-05-16T08:49:49.380Z,24.90
2023-05-16T08:53:00.971Z,24.80
2023-05-16T08:56:13.215Z,24.80
2023-05-16T08:59:23.492Z,24.80
2023-05-16T09:02:34.534Z,24.80
2023-05-16T09:05:46.130Z,24.70
2023-05-16T09:08:58.039Z,24.70
2023-05-16T09:12:11.784Z,24.80
2023-05-16T09:15:23.459Z,24.70
2023-05-16T09:18:33.329Z,24.70
2023-05-16T09:21:44.175Z,24.60
2023-05-16T09:24:55.640Z,24.60
2023-05-16T09:28:06.894Z,24.70
2023-05-16T09:31:28.841Z,24.70
2023-05-16T09:34:40.087Z,24.60
2023-05-16T09:37:54.972Z,24.60
2023-05-16T09:41:06.782Z,24.60
2023-05-16T09:44:21.945Z,24.60
2023-05-16T09:47:34.543Z,24.60
2023-05-16T09:50:53.093Z,24.50
2023-05-16T09:54:01.905Z,24.50
2023-05-16T09:57:13.987Z,24.40
2023-05-16T10:00:24.933Z,24.40
2023-05-16T10:03:37.687Z,24.40
2023-05-16T10:06:49.567Z,24.40
2023-05-16T10:09:58.901Z,24.40
2023-05-16T10:13:11.862Z,24.40
2023-05-16T10:16:25.505Z,24.40
2023-05-16T10:19:38.210Z,24.40
2023-05-16T10:22:52.111Z,24.40
2023-05-16T10:26:03.444Z,24.40
2023-05-16T10:29:15.214Z,24.40
2023-05-16T10:32:27.233Z,24.30
2023-05-16T10:35:39.690Z,24.30
2023-05-16T10:38:50.411Z,24.30
2023-05-16T10:42:02.776Z,24.30
2023-05-16T10:45:26.540Z,24.30
2023-05-16T10:48:35.883Z,24.30
2023-05-16T10:51:47.362Z,24.20
2023-05-16T10:54:57.852Z,24.30
2023-05-16T10:58:10.194Z,24.30
2023-05-16T11:01:25.730Z,24.30
2023-05-16T11:04:51.640Z,24.30
2023-05-16T11:08:10.875Z,24.20
2023-05-16T11:11:49.664Z,24.30
2023-05-16T11:15:00.774Z,24.30
2023-05-16T11:18:16.426Z,24.20
2023-05-16T11:21:26.985Z,24.10
2023-05-16T11:24:40.459Z,24.20
2023-05-16T11:27:52.156Z,24.20
2023-05-16T11:31:03.925Z,24.10
2023-05-16T11:34:17.051Z,24.10
2023-05-16T11:37:25.704Z,24.10
2023-05-16T11:40:38.249Z,24.10
2023-05-16T11:43:48.840Z,24.10
2023-05-16T11:47:01.797Z,24.20
2023-05-16T11:50:16.124Z,24.10
2023-05-16T11:53:25.385Z,24.10
2023-05-16T11:56:34.639Z,24.10
2023-05-16T11:59:44.730Z,24.10
2023-05-16T12:02:57.493Z,24.20
2023-05-16T12:06:09.126Z,24.20
2023-05-16T12:09:19.484Z,24.20
2023-05-16T12:12:30.760Z,24.10
2023-05-16T12:15:40.558Z,24.30
2023-05-16T12:18:52.154Z,24.30
2023-05-16T12:22:05.968Z,24.30
2023-05-16T12:29:06.016Z,24.20
2023-05-16T12:32:16.109Z,24.30
2023-05-16T12:35:24.649Z,24.40
2023-05-16T12:38:33.342Z,24.40
2023-05-16T12:41:46.310Z,24.30
2023-05-16T12:45:00.115Z,24.40
2023-05-16T12:48:15.335Z,24.40
2023-05-16T12:51:24.771Z,24.50
2023-05-16T12:54:36.133Z,24.50
2023-05-16T12:57:49.423Z,24.50
2023-05-16T13:00:58.248Z,24.50
2023-05-16T13:04:09.947Z,24.60
2023-05-16T13:07:20.962Z,24.60
2023-05-16T13:10:35.203Z,24.60
2023-05-16T13:13:48.479Z,24.60
2023-05-16T13:16:56.283Z,24.60
2023-05-16T13:20:07.783Z,24.70
2023-05-16T13:23:17.308Z,24.60
2023-05-16T13:26:28.305Z,24.60
2023-05-16T13:29:39.730Z,24.60
2023-05-16T13:32:50.251Z,24.60
2023-05-16T13:36:00.813Z,24.70
2023-05-16T13:39:10.340Z,24.70
2023-05-16T13:42:22.319Z,24.70
2023-05-16T13:45:36.005Z,24.70
2023-05-16T13:48:45.032Z,24.70
2023-05-16T13:51:57.096Z,24.80
2023-05-16T13:55:07.425Z,24.80
2023-05-16T13:58:17.119Z,24.80
2023-05-16T14:01:27.970Z,24.90
2023-05-16T14:04:35.842Z,24.90
2023-05-16T14:07:47.361Z,24.90
2023-05-16T14:10:59.197Z,24.90
2023-05-16T14:14:15.814Z,24.90
2023-05-16T14:17:28.034Z,25.00
2023-05-16T14:20:37.576Z,25.00
2023-05-16T14:23:49.273Z,25.10
2023-05-16T14:27:02.226Z,25.00
2023-05-16T14:30:16.381Z,25.00
2023-05-16T14:33:26.153Z,25.10
2023-05-16T14:36:39.556Z,25.10
2023-05-16T14:39:53.074Z,25.00
2023-05-16T14:43:04.825Z,25.00
2023-05-16T14:46:13.550Z,25.00
2023-05-16T14:49:23.233Z,25.00
2023-05-16T14:52:38.264Z,25.00
2023-05-16T14:55:50.354Z,25.00
2023-05-16T14:59:01.008Z,25.00
2023-05-16T15:02:11.647Z,25.10
2023-05-16T15:05:19.405Z,25.20
2023-05-16T15:08:28.206Z,25.10
2023-05-16T15:11:36.948Z,25.10
2023-05-16T15:14:48.415Z,25.10
2023-05-16T15:17:59.992Z,25.10
2023-05-16T15:21:09.677Z,25.10
2023-05-16T15:24:19.513Z,25.10
2023-05-16T15:27:28.835Z,25.10
2023-05-16T15:30:38.952Z,25.20
2023-05-16T15:33:50.854Z,25.30
2023-05-16T15:37:02.743Z,25.30
2023-05-16T15:40:17.387Z,25.30
2023-05-16T15:43:30.408Z,25.30
2023-05-16T15:46:40.815Z,25.30
2023-05-16T15:49:49.873Z,25.30
2023-05-16T15:52:59.684Z,25.40
2023-05-16T15:56:14.123Z,25.40
2023-05-16T15:59:22.794Z,25.40
2023-05-16T16:02:32.278Z,25.50
2023-05-16T16:05:40.522Z,25.50
2023-05-16T16:08:50.635Z,25.50
2023-05-16T16:11:58.796Z,25.50
2023-05-16T16:15:09.543Z,25.60
2023-05-16T16:18:24.364Z,25.60
2023-05-16T16:21:39.700Z,25.60
2023-05-16T16:24:52.875Z,25.50
2023-05-16T16:28:01.369Z,25.60
2023-05-16T16:31:11.700Z,25.60
2023-05-16T16:34:26.222Z,25.70
2023-05-16T16:37:35.157Z,25.70
2023-05-16T16:40:46.652Z,25.70
2023-05-16T16:43:59.360Z,25.70
2023-05-16T16:47:11.959Z,25.70
2023-05-16T16:50:22.706Z,25.80
2023-05-16T16:53:34.746Z,25.70
2023-05-16T16:56:48.477Z,25.70
2023-05-16T17:00:03.353Z,25.80
2023-05-16T17:03:14.424Z,25.80
2023-05-16T17:06:27.347Z,25.80
2023-05-16T17:09:40.111Z,25.80
2023-05-16T17:12:56.243Z,25.80
2023-05-16T17:16:10.678Z,25.80
2023-05-16T17:19:24.087Z,25.80
2023-05-16T17:22:37.706Z,25.80
2023-05-16T17:25:51.813Z,25.80
2023-05-16T17:29:02.710Z,25.80
2023-05-16T17:32:16.619Z,25.80
2023-05-16T17:35:29.923Z,25.90
2023-05-16T17:38:43.411Z,25.90
2023-05-16T17:41:56.055Z,25.80
2023-05-16T17:45:05.464Z,25.90
2023-05-16T17:48:17.986Z,25.90
2023-05-16T17:51:29.577Z,26.00
2023-05-16T17:54:40.740Z,25.90
2023-05-16T17:57:53.601Z,25.90
2023-05-16T18:01:05.667Z,25.90
2023-05-16T18:04:18.622Z,26.00
2023-05-16T18:07:32.653Z,26.00
2023-05-16T18:13:59.154Z,26.00
2023-05-16T18:17:11.478Z,26.10
2023-05-16T18:20:23.469Z,26.20
2023-05-16T18:23:37.455Z,26.10
2023-05-16T18:26:51.546Z,26.10
2023-05-16T18:30:04.062Z,26.10
2023-05-16T18:33:19.207Z,26.20
2023-05-16T18:36:30.105Z,26.20
2023-05-16T18:39:41.432Z,26.10
2023-05-16T18:42:52.059Z,26.10
2023-05-16T18:46:01.096Z,26.20
2023-05-16T18:49:12.626Z,26.20
2023-05-16T18:52:23.537Z,26.20
2023-05-16T18:55:34.723Z,26.20
2023-05-16T18:58:43.293Z,26.20
2023-05-16T19:01:56.586Z,26.20
2023-05-16T19:05:08.904Z,26.20
2023-05-16T19:08:25.469Z,26.20
2023-05-16T19:11:35.751Z,26.20
2023-05-16T19:14:46.804Z,26.30
2023-05-16T19:17:59.585Z,26.30
2023-05-16T19:21:12.685Z,26.40
2023-05-16T19:24:23.178Z,26.30
2023-05-16T19:27:34.080Z,26.30
2023-05-16T19:30:46.177Z,26.30
2023-05-16T19:33:56.964Z,26.30
2023-05-16T19:37:10.493Z,26.30
2023-05-16T19:40:23.755Z,26.20
2023-05-16T19:43:36.488Z,26.20
2023-05-16T19:46:48.884Z,26.20
2023-05-16T19:49:58.171Z,26.20
2023-05-16T19:53:10.353Z,26.10
2023-05-16T19:56:22.460Z,26.10
2023-05-16T19:59:35.049Z,26.00
2023-05-16T20:02:46.191Z,26.10
2023-05-16T20:05:59.253Z,26.10
2023-05-16T20:09:13.326Z,26.10
2023-05-16T20:12:24.991Z,26.10
2023-05-16T20:15:35.960Z,26.10
2023-05-16T20:18:49.678Z,26.10
2023-05-16T20:22:01.853Z,26.10
2023-05-16T20:25:13.590Z,26.00
2023-05-16T20:28:27.403Z,26.00
2023-05-16T20:31:37.000Z,26.10
2023-05-16T20:34:45.106Z,26.10
2023-05-16T20:37:58.865Z,26.00
2023-05-16T20:41:12.230Z,26.00
2023-05-16T20:44:26.630Z,25.90
2023-05-16T20:47:42.168Z,26.00
2023-05-16T20:50:54.861Z,26.00
2023-05-16T20:54:06.986Z,25.90
2023-05-16T20:57:19.128Z,25.90
2023-05-16T21:00:29.248Z,25.90
2023-05-16T21:03:40.075Z,25.90
2023-05-16T21:06:53.782Z,26.00
2023-05-16T21:10:08.912Z,25.90
2023-05-16T21:13:20.681Z,25.90
2023-05-16T21:16:36.478Z,25.90
2023-05-16T21:19:48.889Z,26.00
2023-05-16T21:23:04.511Z,26.00
2023-05-16T21:26:14.661Z,25.90
2023-05-16T21:29:25.665Z,25.90
2023-05-16T21:32:40.538Z,26.00
2023-05-16T21:35:53.150Z,26.00
2023-05-16T21:39:03.985Z,26.00
2023-05-16T21:42:14.301Z,26.00
2023-05-16T21:45:27.330Z,26.00
2023-05-16T21:48:37.390Z,25.90
2023-05-16T21:51:50.564Z,25.90
2023-05-16T21:54:57.909Z,26.00
2023-05-16T21:58:08.632Z,26.00
2023-05-16T22:01:20.753Z,26.00
2023-05-16T22:04:31.830Z,25.90
2023-05-16T22:07:44.366Z,25.90
2023-05-16T22:10:55.684Z,25.90
2023-05-16T22:14:09.388Z,25.90
2023-05-16T22:17:20.166Z,25.90
2023-05-16T22:20:31.953Z,25.90
2023-05-16T22:23:41.660Z,25.90
2023-05-16T22:26:54.686Z,25.90
2023-05-16T22:30:09.651Z,25.90
2023-05-16T22:33:22.852Z,25.90
2023-05-16T22:36:34.647Z,25.90
2023-05-16T22:39:48.075Z,26.00
2023-05-16T22:42:59.303Z,26.00
2023-05-16T22:46:13.612Z,26.00
2023-05-16T22:49:22.989Z,25.90
2023-05-16T22:52:34.608Z,25.90
2023-05-16T22:55:46.009Z,25.90
2023-05-16T22:59:00.255Z,25.90
2023-05-16T23:02:11.451Z,26.00
2023-05-16T23:05:23.734Z,25.90
2023-05-16T23:08:32.762Z,25.90
2023-05-16T23:11:45.521Z,26.00
2023-05-16T23:14:53.604Z,26.00
2023-05-16T23:18:07.513Z,25.90
2023-05-16T23:21:17.628Z,25.90
2023-05-16T23:24:28.541Z,25.90
2023-05-16T23:27:40.005Z,25.90
2023-05-16T23:30:51.509Z,25.90
2023-05-16T23:34:02.958Z,25.90
2023-05-16T23:37:13.487Z,25.90
2023-05-16T23:40:25.265Z,25.90
2023-05-16T23:43:38.314Z,25.90
2023-05-16T23:46:44.594Z,25.90
2023-05-16T23:49:56.620Z,25.80
2023-05-16T23:53:08.132Z,25.80
2023-05-16T23:56:16.452Z,25.80
2023-05-16T23:59:29.856Z,25.90
